createdAt,value
2019-05-01T00:00:36.175Z,57.17
2019-05-01T00:03:42.962Z,58.57
2019-05-01T00:06:44.536Z,57.23
2019-05-01T00:09:36.169Z,60.77
2019-05-01T00:12:27.752Z,67.37
2019-05-01T00:15:23.521Z,57.67
2019-05-01T00:18:15.111Z,57.50
2019-05-01T00:21:06.731Z,60.00
2019-05-01T00:23:58.123Z,62.70
2019-05-01T00:26:50.645Z,63.03
2019-05-01T00:29:43.252Z,57.00
2019-05-01T00:32:35.639Z,60.57
2019-05-01T00:35:27.205Z,59.03
2019-05-01T00:38:18.600Z,62.53
2019-05-01T00:41:10.132Z,63.93
2019-05-01T00:44:01.568Z,69.67
2019-05-01T00:46:53.277Z,61.07
2019-05-01T00:49:44.503Z,59.20
2019-05-01T00:52:35.924Z,57.97
2019-05-01T00:56:04.646Z,59.40
2019-05-01T00:59:14.027Z,63.37
2019-05-01T01:02:14.785Z,58.90
2019-05-01T01:05:06.789Z,64.57
2019-05-01T01:07:58.480Z,68.13
2019-05-01T01:10:49.923Z,73.17
2019-05-01T01:13:41.582Z,69.63
2019-05-01T01:16:33.104Z,59.13
2019-05-01T01:19:24.688Z,64.27
2019-05-01T01:22:16.141Z,64.77
2019-05-01T01:25:07.964Z,64.13
2019-05-01T01:27:59.410Z,66.87
2019-05-01T01:30:56.486Z,71.13
2019-05-01T01:33:43.584Z,68.97
2019-05-01T01:36:35.364Z,73.53
2019-05-01T01:39:26.809Z,73.73
2019-05-01T01:42:18.744Z,73.70
2019-05-01T01:45:17.426Z,64.17
2019-05-01T01:48:13.747Z,60.30
2019-05-01T01:51:05.489Z,61.20
2019-05-01T01:53:59.211Z,65.47
2019-05-01T01:56:50.501Z,67.80
2019-05-01T01:59:41.823Z,66.03
2019-05-01T02:02:57.115Z,64.90
2019-05-01T02:05:48.593Z,61.23
2019-05-01T02:08:40.179Z,61.87
2019-05-01T02:11:31.870Z,60.97
2019-05-01T02:14:23.112Z,69.77
2019-05-01T02:17:14.613Z,66.80
2019-05-01T02:20:09.514Z,67.73
2019-05-01T02:23:01.226Z,70.57
2019-05-01T02:25:52.739Z,73.67
2019-05-01T02:28:50.087Z,69.00
2019-05-01T02:31:45.750Z,71.23
2019-05-01T02:34:39.783Z,60.20
2019-05-01T02:37:33.582Z,73.37
2019-05-01T02:40:53.180Z,72.70
2019-05-01T02:43:49.503Z,70.37
2019-05-01T02:46:43.637Z,81.50
2019-05-01T02:49:51.152Z,75.90
2019-05-01T02:52:44.012Z,69.17
2019-05-01T02:55:41.245Z,82.00
2019-05-01T02:58:32.660Z,83.37
2019-05-01T03:01:24.290Z,82.37
2019-05-01T03:04:16.585Z,83.37
2019-05-01T03:07:09.134Z,76.43
2019-05-01T03:10:01.578Z,80.40
2019-05-01T03:12:55.505Z,86.27
2019-05-01T03:15:47.238Z,74.93
2019-05-01T03:18:42.951Z,75.57
2019-05-01T03:21:43.070Z,91.27
2019-05-01T03:24:35.376Z,98.60
2019-05-01T03:27:28.058Z,82.17
2019-05-01T03:30:19.390Z,92.90
2019-05-01T03:33:10.816Z,79.30
2019-05-01T03:36:02.816Z,84.10
2019-05-01T03:38:54.389Z,86.80
2019-05-01T03:41:47.315Z,84.73
2019-05-01T03:44:39.086Z,84.47
2019-05-01T03:47:31.658Z,93.47
2019-05-01T03:50:25.505Z,83.10
2019-05-01T03:53:16.859Z,74.43
2019-05-01T03:56:08.431Z,78.90
2019-05-01T03:59:00.733Z,84.90
2019-05-01T04:02:02.288Z,85.77
2019-05-01T04:04:54.175Z,76.83
2019-05-01T04:07:46.114Z,83.27
2019-05-01T04:10:37.876Z,84.07
2019-05-01T04:13:29.650Z,79.60
2019-05-01T04:16:22.490Z,73.70
2019-05-01T04:19:13.736Z,84.77
2019-05-01T04:22:11.385Z,74.37
2019-05-01T04:25:03.330Z,85.27
2019-05-01T04:27:58.706Z,93.93
2019-05-01T04:31:01.990Z,92.37
2019-05-01T04:33:56.926Z,91.77
2019-05-01T04:36:51.698Z,87.73
2019-05-01T04:39:43.486Z,94.20
2019-05-01T04:42:34.847Z,92.40
2019-05-01T04:45:26.371Z,89.00
2019-05-01T04:48:18.783Z,94.13
2019-05-01T04:51:10.448Z,100.57
2019-05-01T04:54:02.152Z,92.03
2019-05-01T04:56:53.873Z,92.60
2019-05-01T04:59:45.469Z,86.67
2019-05-01T05:02:43.668Z,86.80
2019-05-01T05:05:34.952Z,90.10
2019-05-01T05:08:26.838Z,97.70
2019-05-01T05:11:23.663Z,101.70
2019-05-01T05:14:20.286Z,95.50
2019-05-01T05:17:16.026Z,103.20
2019-05-01T05:20:08.221Z,104.17
2019-05-01T05:23:00.606Z,104.80
2019-05-01T05:25:52.987Z,106.07
2019-05-01T05:28:46.311Z,109.37
2019-05-01T05:31:38.773Z,106.73
2019-05-01T05:34:30.673Z,107.40
2019-05-01T05:37:28.307Z,117.23
2019-05-01T05:40:20.493Z,121.13
2019-05-01T05:43:12.154Z,111.53
2019-05-01T05:46:04.438Z,113.10
2019-05-01T05:48:57.293Z,114.30
2019-05-01T05:51:56.498Z,115.07
2019-05-01T05:55:11.922Z,126.33
2019-05-01T05:58:19.339Z,114.87
2019-05-01T06:01:35.935Z,122.10
2019-05-01T06:04:47.545Z,115.57
2019-05-01T06:08:02.954Z,113.23
2019-05-01T06:11:13.046Z,116.10
2019-05-01T06:14:22.542Z,112.20
2019-05-01T06:17:42.866Z,113.10
2019-05-01T06:21:12.947Z,109.33
2019-05-01T06:24:20.891Z,119.07
2019-05-01T06:27:14.931Z,111.17
2019-05-01T06:30:11.007Z,118.47
2019-05-01T06:33:04.168Z,116.23
2019-05-01T06:35:53.156Z,115.47
2019-05-01T06:38:45.247Z,118.37
2019-05-01T06:41:42.746Z,114.40
2019-05-01T06:44:45.099Z,111.13
2019-05-01T06:47:52.489Z,119.20
2019-05-01T06:50:50.949Z,112.23
2019-05-01T06:53:42.317Z,114.97
2019-05-01T06:56:34.367Z,116.43
2019-05-01T06:59:31.323Z,114.90
2019-05-01T07:02:21.870Z,117.83
2019-05-01T07:05:14.780Z,119.40
2019-05-01T07:08:06.695Z,112.70
2019-05-01T07:10:58.174Z,117.90
2019-05-01T07:13:55.503Z,127.47
2019-05-01T07:16:45.866Z,122.03
2019-05-01T07:20:02.211Z,118.93
2019-05-01T07:22:54.016Z,114.90
2019-05-01T07:25:46.288Z,121.23
2019-05-01T07:28:39.275Z,113.60
2019-05-01T07:31:32.600Z,121.27
2019-05-01T07:34:26.180Z,117.90
2019-05-01T07:37:20.886Z,114.43
2019-05-01T07:40:11.529Z,115.17
2019-05-01T07:43:10.689Z,124.50
2019-05-01T07:46:27.162Z,115.23
2019-05-01T07:49:22.504Z,116.70
2019-05-01T07:52:17.165Z,117.00
2019-05-01T07:55:08.513Z,114.57
2019-05-01T07:58:00.208Z,108.77
2019-05-01T08:00:59.567Z,111.93
2019-05-01T08:03:50.781Z,124.73
2019-05-01T08:06:42.391Z,117.20
2019-05-01T08:09:33.994Z,115.47
2019-05-01T08:12:26.013Z,115.23
2019-05-01T08:15:18.479Z,116.47
2019-05-01T08:18:18.206Z,114.10
2019-05-01T08:21:41.572Z,118.80
2019-05-01T08:24:32.933Z,111.67
2019-05-01T08:28:02.606Z,126.07
2019-05-01T08:31:11.345Z,111.73
2019-05-01T08:34:08.158Z,112.73
2019-05-01T08:36:59.602Z,115.70
2019-05-01T08:39:51.012Z,119.23
2019-05-01T08:42:44.169Z,116.70
2019-05-01T08:45:58.382Z,118.80
2019-05-01T08:48:54.795Z,118.03
2019-05-01T08:51:46.496Z,119.90
2019-05-01T08:54:38.029Z,131.73
2019-05-01T08:57:34.515Z,116.63
2019-05-01T09:00:22.896Z,115.67
2019-05-01T09:03:18.839Z,112.20
2019-05-01T09:06:07.569Z,115.70
2019-05-01T09:09:02.881Z,109.03
2019-05-01T09:11:54.914Z,115.97
2019-05-01T09:14:47.200Z,111.93
2019-05-01T09:17:38.996Z,113.60
2019-05-01T09:20:32.049Z,115.70
2019-05-01T09:23:24.377Z,121.03
2019-05-01T09:26:34.961Z,116.10
2019-05-01T09:29:33.631Z,114.20
2019-05-01T09:32:24.996Z,108.53
2019-05-01T09:35:19.586Z,110.30
2019-05-01T09:38:10.011Z,104.60
2019-05-01T09:41:01.335Z,111.13
2019-05-01T09:43:52.639Z,108.47
2019-05-01T09:46:44.199Z,101.93
2019-05-01T09:49:35.918Z,104.70
2019-05-01T09:52:35.552Z,107.40
2019-05-01T09:55:44.922Z,103.80
2019-05-01T09:58:36.200Z,107.67
2019-05-01T10:01:31.637Z,109.87
2019-05-01T10:04:25.368Z,98.10
2019-05-01T10:07:14.514Z,108.07
2019-05-01T10:10:07.383Z,105.53
2019-05-01T10:12:59.064Z,99.57
2019-05-01T10:15:50.427Z,105.37
2019-05-01T10:18:41.989Z,96.47
2019-05-01T10:21:33.691Z,100.97
2019-05-01T10:24:25.119Z,112.23
2019-05-01T10:27:19.702Z,98.53
2019-05-01T10:30:21.476Z,97.83
2019-05-01T10:33:19.791Z,97.53
2019-05-01T10:36:20.620Z,98.33
2019-05-01T10:39:16.073Z,97.70
2019-05-01T10:42:05.871Z,105.90
2019-05-01T10:44:57.271Z,91.77
2019-05-01T10:47:48.589Z,100.20
2019-05-01T10:50:39.977Z,101.67
2019-05-01T10:53:31.359Z,93.70
2019-05-01T10:56:22.774Z,93.67
2019-05-01T10:59:14.558Z,92.83
2019-05-01T11:02:08.757Z,92.53
2019-05-01T11:05:00.353Z,98.00
2019-05-01T11:07:51.707Z,93.63
2019-05-01T11:10:43.082Z,91.73
2019-05-01T11:13:34.653Z,99.37
2019-05-01T11:16:26.035Z,91.00
2019-05-01T11:19:17.683Z,91.13
2019-05-01T11:22:09.306Z,94.30
2019-05-01T11:25:00.772Z,85.50
2019-05-01T11:27:52.173Z,88.67
2019-05-01T11:30:43.741Z,89.80
2019-05-01T11:34:10.050Z,88.27
2019-05-01T11:37:25.217Z,92.93
2019-05-01T11:40:25.192Z,93.93
2019-05-01T11:43:16.473Z,85.23
2019-05-01T11:46:08.076Z,90.20
2019-05-01T11:48:59.546Z,83.43
2019-05-01T11:51:50.892Z,78.83
2019-05-01T11:54:42.212Z,88.27
2019-05-01T11:57:33.698Z,79.70
2019-05-01T12:00:25.617Z,97.27
2019-05-01T12:03:17.331Z,81.03
2019-05-01T12:06:22.141Z,87.00
2019-05-01T12:09:02.267Z,84.10
2019-05-01T12:11:58.236Z,84.17
2019-05-01T12:14:49.491Z,88.27
2019-05-01T12:17:47.863Z,83.53
2019-05-01T12:20:39.178Z,77.27
2019-05-01T12:23:30.545Z,80.93
2019-05-01T12:26:21.907Z,77.57
2019-05-01T12:29:13.198Z,73.03
2019-05-01T12:32:04.816Z,74.33
2019-05-01T12:34:56.512Z,73.57
2019-05-01T12:37:47.821Z,71.60
2019-05-01T12:40:39.395Z,72.30
2019-05-01T12:43:30.812Z,72.93
2019-05-01T12:46:39.427Z,76.53
2019-05-01T12:49:30.838Z,79.27
2019-05-01T12:52:30.961Z,72.97
2019-05-01T12:55:33.602Z,71.83
2019-05-01T12:58:24.779Z,72.40
2019-05-01T13:01:16.151Z,74.17
2019-05-01T13:04:07.352Z,76.33
2019-05-01T13:07:00.487Z,74.03
2019-05-01T13:09:51.830Z,69.73
2019-05-01T13:12:43.494Z,72.03
2019-05-01T13:15:35.007Z,63.73
2019-05-01T13:18:26.544Z,71.37
2019-05-01T13:21:18.087Z,66.50
2019-05-01T13:24:10.069Z,74.57
2019-05-01T13:27:12.168Z,81.77
2019-05-01T13:30:14.154Z,72.20
2019-05-01T13:33:05.736Z,78.20
2019-05-01T13:35:58.174Z,70.73
2019-05-01T13:38:49.840Z,70.47
2019-05-01T13:41:41.570Z,80.13
2019-05-01T13:44:33.364Z,72.10
2019-05-01T13:47:24.819Z,75.40
2019-05-01T13:50:17.316Z,69.10
2019-05-01T13:53:09.670Z,76.60
2019-05-01T13:56:01.176Z,76.03
2019-05-01T13:58:52.844Z,69.33
2019-05-01T14:01:44.589Z,71.13
2019-05-01T14:04:36.122Z,70.13
2019-05-01T14:07:28.309Z,74.70
2019-05-01T14:10:21.153Z,76.10
2019-05-01T14:13:12.713Z,82.97
2019-05-01T14:16:04.539Z,82.10
2019-05-01T14:18:56.005Z,82.07
2019-05-01T14:22:05.572Z,88.60
2019-05-01T14:24:58.563Z,87.77
2019-05-01T14:27:50.127Z,90.97
2019-05-01T14:30:42.247Z,72.20
2019-05-01T14:33:33.560Z,75.27
2019-05-01T14:36:25.243Z,70.57
2019-05-01T14:39:16.661Z,75.13
2019-05-01T14:42:08.166Z,82.93
2019-05-01T14:45:00.390Z,75.70
2019-05-01T14:47:52.080Z,78.80
2019-05-01T14:50:56.245Z,77.17
2019-05-01T14:53:47.729Z,84.23
2019-05-01T14:56:39.123Z,80.97
2019-05-01T14:59:30.472Z,77.67
2019-05-01T15:02:21.762Z,78.90
2019-05-01T15:05:13.198Z,77.17
2019-05-01T15:10:07.026Z,90.90
2019-05-01T15:13:00.585Z,79.00
2019-05-01T15:16:04.107Z,78.03
2019-05-01T15:19:08.341Z,78.07
2019-05-01T15:22:00.214Z,94.67
2019-05-01T15:24:51.845Z,161.00
2019-05-01T15:27:43.193Z,75.73
2019-05-01T15:30:34.741Z,76.73
2019-05-01T15:33:26.756Z,81.43
2019-05-01T15:36:18.300Z,76.97
2019-05-01T15:39:16.219Z,73.33
2019-05-01T15:42:23.208Z,82.30
2019-05-01T15:45:14.666Z,80.83
2019-05-01T15:48:07.088Z,81.23
2019-05-01T15:50:59.044Z,83.33
2019-05-01T15:53:50.810Z,86.23
2019-05-01T15:56:42.195Z,83.43
2019-05-01T15:59:33.910Z,83.30
2019-05-01T16:02:25.663Z,83.97
2019-05-01T16:05:17.363Z,79.03
2019-05-01T16:08:10.076Z,104.50
2019-05-01T16:11:07.946Z,90.90
2019-05-01T16:13:59.319Z,81.50
2019-05-01T16:16:50.937Z,88.57
2019-05-01T16:19:43.279Z,88.60
2019-05-01T16:22:35.732Z,85.50
2019-05-01T16:25:27.194Z,82.40
2019-05-01T16:28:18.672Z,109.83
2019-05-01T16:31:10.184Z,90.33
2019-05-01T16:34:02.583Z,92.93
2019-05-01T16:36:54.066Z,88.23
2019-05-01T16:40:00.418Z,92.93
2019-05-01T16:42:51.638Z,84.30
2019-05-01T16:45:43.096Z,93.77
2019-05-01T16:48:34.628Z,94.50
2019-05-01T16:51:26.131Z,97.47
2019-05-01T16:54:17.903Z,93.23
2019-05-01T16:57:12.187Z,88.10
2019-05-01T17:00:04.215Z,103.90
2019-05-01T17:03:11.921Z,107.50
2019-05-01T17:06:17.025Z,106.50
2019-05-01T17:09:33.052Z,106.10
2019-05-01T17:12:28.471Z,114.63
2019-05-01T17:15:31.581Z,110.60
2019-05-01T17:18:23.049Z,119.30
2019-05-01T17:21:14.335Z,117.87
2019-05-01T17:24:05.745Z,118.47
2019-05-01T17:26:57.438Z,121.03
2019-05-01T17:29:49.472Z,124.67
2019-05-01T17:32:44.294Z,123.13
2019-05-01T17:35:36.799Z,126.87
2019-05-01T17:38:27.253Z,126.67
2019-05-01T17:41:22.783Z,123.90
2019-05-01T17:44:11.918Z,135.07
2019-05-01T17:47:03.281Z,134.63
2019-05-01T17:49:54.870Z,134.30
2019-05-01T17:52:46.492Z,131.10
2019-05-01T17:55:38.226Z,132.20
2019-05-01T17:58:29.686Z,131.60
2019-05-01T18:01:42.723Z,134.13
2019-05-01T18:04:47.969Z,139.73
2019-05-01T18:07:39.515Z,136.10
2019-05-01T18:10:34.111Z,133.87
2019-05-01T18:13:23.883Z,131.97
2019-05-01T18:16:15.330Z,127.80
2019-05-01T18:19:09.904Z,135.27
2019-05-01T18:22:18.493Z,141.10
2019-05-01T18:25:21.975Z,134.17
2019-05-01T18:28:44.606Z,147.60
2019-05-01T18:31:36.146Z,136.80
2019-05-01T18:34:27.684Z,135.40
2019-05-01T18:37:24.895Z,137.23
2019-05-01T18:40:36.394Z,131.20
2019-05-01T18:43:32.117Z,134.03
2019-05-01T18:46:20.947Z,142.00
2019-05-01T18:49:13.044Z,137.60
2019-05-01T18:52:05.043Z,142.70
2019-05-01T18:54:58.278Z,148.40
2019-05-01T18:57:50.020Z,150.70
2019-05-01T19:00:41.662Z,139.67
2019-05-01T19:03:37.171Z,145.60
2019-05-01T19:06:26.050Z,134.23
2019-05-01T19:09:29.353Z,139.13
2019-05-01T19:12:11.871Z,138.50
2019-05-01T19:15:05.365Z,133.93
2019-05-01T19:17:56.785Z,128.60
2019-05-01T19:20:58.960Z,131.17
2019-05-01T19:23:41.701Z,133.53
2019-05-01T19:26:33.234Z,135.73
2019-05-01T19:29:26.710Z,133.70
2019-05-01T19:32:18.714Z,132.97
2019-05-01T19:35:10.862Z,130.00
2019-05-01T19:38:02.253Z,128.67
2019-05-01T19:40:53.805Z,133.40
2019-05-01T19:43:45.222Z,135.60
2019-05-01T19:46:37.328Z,138.10
2019-05-01T19:49:29.674Z,132.63
2019-05-01T19:52:21.863Z,131.27
2019-05-01T19:55:13.887Z,135.43
2019-05-01T19:58:05.212Z,129.40
2019-05-01T20:01:03.987Z,127.00
2019-05-01T20:03:53.961Z,136.73
2019-05-01T20:06:45.900Z,130.80
2019-05-01T20:09:37.941Z,138.20
2019-05-01T20:12:30.102Z,139.20
2019-05-01T20:15:25.274Z,136.60
2019-05-01T20:18:14.358Z,127.07
2019-05-01T20:21:06.486Z,136.87
2019-05-01T20:23:58.123Z,136.43
2019-05-01T20:26:49.839Z,133.57
2019-05-01T20:29:42.101Z,132.80
2019-05-01T20:32:34.452Z,127.67
2019-05-01T20:35:28.583Z,130.50
2019-05-01T20:38:19.138Z,132.97
2019-05-01T20:41:15.819Z,123.60
2019-05-01T20:44:04.402Z,124.33
2019-05-01T20:46:58.426Z,129.17
2019-05-01T20:49:48.713Z,137.50
2019-05-01T20:52:40.358Z,132.27
2019-05-01T20:55:32.000Z,132.33
2019-05-01T20:58:24.610Z,128.27
2019-05-01T21:01:16.191Z,128.13
2019-05-01T21:04:25.448Z,122.30
2019-05-01T21:07:21.345Z,131.80
2019-05-01T21:10:24.231Z,131.70
2019-05-01T21:13:05.866Z,134.50
2019-05-01T21:16:01.669Z,125.70
2019-05-01T21:18:51.396Z,128.70
2019-05-01T21:21:43.552Z,128.60
2019-05-01T21:24:35.483Z,132.23
2019-05-01T21:27:26.949Z,124.90
2019-05-01T21:30:18.720Z,133.30
2019-05-01T21:33:11.942Z,126.50
2019-05-01T21:36:08.212Z,129.60
2019-05-01T21:38:56.861Z,131.27
2019-05-01T21:41:48.665Z,125.90
2019-05-01T21:44:40.490Z,140.90
2019-05-01T21:47:33.472Z,132.53
2019-05-01T21:50:26.347Z,137.47
2019-05-01T21:53:18.933Z,131.37
2019-05-01T21:56:11.029Z,130.50
2019-05-01T21:59:06.766Z,137.67
2019-05-01T22:01:55.950Z,135.50
2019-05-01T22:04:48.003Z,134.73
2019-05-01T22:07:39.542Z,124.20
2019-05-01T22:10:30.941Z,140.73
2019-05-01T22:13:24.357Z,136.50
2019-05-01T22:16:24.280Z,121.57
2019-05-01T22:19:21.055Z,128.07
2019-05-01T22:22:31.516Z,129.07
2019-05-01T22:25:33.615Z,137.53
2019-05-01T22:28:37.254Z,128.97
2019-05-01T22:31:52.801Z,126.33
2019-05-01T22:34:54.342Z,121.43
2019-05-01T22:37:45.945Z,117.93
2019-05-01T22:40:47.788Z,128.03
2019-05-01T22:43:41.245Z,127.30
2019-05-01T22:46:33.725Z,120.67
2019-05-01T22:49:26.237Z,130.63
2019-05-01T22:52:17.536Z,134.57
2019-05-01T22:55:09.135Z,125.03
2019-05-01T22:58:00.754Z,123.93
2019-05-01T23:00:55.018Z,127.00
2019-05-01T23:03:53.100Z,135.43
2019-05-01T23:06:44.724Z,130.93
2019-05-01T23:09:36.242Z,129.30
2019-05-01T23:12:27.952Z,136.50
2019-05-01T23:15:23.117Z,130.10
2019-05-01T23:18:17.099Z,129.10
2019-05-01T23:21:09.859Z,126.93
2019-05-01T23:24:02.389Z,122.00
2019-05-01T23:26:54.434Z,131.43
2019-05-01T23:29:45.780Z,127.83
2019-05-01T23:32:38.917Z,127.67
2019-05-01T23:35:30.980Z,126.10
2019-05-01T23:38:22.261Z,122.40
2019-05-01T23:41:13.825Z,120.97
2019-05-01T23:44:05.454Z,126.07
2019-05-01T23:46:57.020Z,131.03
2019-05-01T23:49:52.588Z,124.37
2019-05-01T23:52:41.464Z,137.93
2019-05-01T23:55:32.720Z,138.23
2019-05-01T23:58:24.062Z,126.10
